createdAt,value
2024-01-11T00:00:48.205Z,25.00
2024-01-11T00:03:15.151Z,25.10
2024-01-11T00:05:43.211Z,26.48
2024-01-11T00:08:10.002Z,25.13
2024-01-11T00:10:37.295Z,28.02
2024-01-11T00:13:05.160Z,26.77
2024-01-11T00:15:31.930Z,29.10
2024-01-11T00:17:58.867Z,25.70
2024-01-11T00:20:25.658Z,27.98
2024-01-11T00:22:52.457Z,26.48
2024-01-11T00:25:19.240Z,29.77
2024-01-11T00:27:45.933Z,24.63
2024-01-11T00:30:12.691Z,26.17
2024-01-11T00:32:39.570Z,24.25
2024-01-11T00:35:07.169Z,23.30
2024-01-11T00:37:33.917Z,25.10
2024-01-11T00:40:00.598Z,24.63
2024-01-11T00:42:27.274Z,23.80
2024-01-11T00:44:54.201Z,21.20
2024-01-11T00:47:20.948Z,21.90
2024-01-11T00:49:47.692Z,26.15
2024-01-11T00:52:15.186Z,23.95
2024-01-11T00:54:42.118Z,26.70
2024-01-11T00:57:08.884Z,25.25
2024-01-11T00:59:35.668Z,24.25
2024-01-11T01:02:02.485Z,23.80
2024-01-11T01:04:29.200Z,22.45
2024-01-11T01:06:55.846Z,22.70
2024-01-11T01:09:22.523Z,22.33
2024-01-11T01:11:49.265Z,23.45
2024-01-11T01:14:16.090Z,22.20
2024-01-11T01:16:42.994Z,21.95
2024-01-11T01:19:09.904Z,23.23
2024-01-11T01:21:36.721Z,20.50
2024-01-11T01:24:03.950Z,23.15
2024-01-11T01:26:30.705Z,23.50
2024-01-11T01:28:57.502Z,25.38
2024-01-11T01:31:24.220Z,23.08
2024-01-11T01:33:50.943Z,22.30
2024-01-11T01:36:17.809Z,22.75
2024-01-11T01:38:44.713Z,22.65
2024-01-11T01:41:11.538Z,22.63
2024-01-11T01:43:38.326Z,25.77
2024-01-11T01:46:06.940Z,25.83
2024-01-11T01:48:34.312Z,22.25
2024-01-11T01:51:01.221Z,22.35
2024-01-11T01:53:29.876Z,22.20
2024-01-11T01:55:57.323Z,23.52
2024-01-11T01:58:24.234Z,24.85
2024-01-11T02:00:52.687Z,20.17
2024-01-11T02:03:19.876Z,22.83
2024-01-11T02:05:47.587Z,21.38
2024-01-11T02:08:18.774Z,22.40
2024-01-11T02:10:47.240Z,22.17
2024-01-11T02:13:14.481Z,22.13
2024-01-11T02:15:43.146Z,19.55
2024-01-11T02:18:10.019Z,21.98
2024-01-11T02:20:36.870Z,22.05
2024-01-11T02:23:09.194Z,23.15
2024-01-11T02:25:36.169Z,21.73
2024-01-11T02:28:03.008Z,20.10
2024-01-11T02:30:29.790Z,19.83
2024-01-11T02:32:56.908Z,20.83
2024-01-11T02:35:25.656Z,21.13
2024-01-11T02:37:52.810Z,18.75
2024-01-11T02:40:20.453Z,20.55
2024-01-11T02:42:47.482Z,23.00
2024-01-11T02:45:14.559Z,22.98
2024-01-11T02:47:41.846Z,19.92
2024-01-11T02:50:09.514Z,20.85
2024-01-11T02:52:36.628Z,19.77
2024-01-11T02:55:03.443Z,21.35
2024-01-11T02:57:30.373Z,21.58
2024-01-11T02:59:57.141Z,21.13
2024-01-11T03:02:24.011Z,22.17
2024-01-11T03:04:50.822Z,24.20
2024-01-11T03:07:17.614Z,23.60
2024-01-11T03:09:44.331Z,24.15
2024-01-11T03:12:11.055Z,21.75
2024-01-11T03:14:37.856Z,24.30
2024-01-11T03:17:05.980Z,22.38
2024-01-11T03:19:32.743Z,25.65
2024-01-11T03:21:59.529Z,22.80
2024-01-11T03:24:26.350Z,24.08
2024-01-11T03:26:53.049Z,21.98
2024-01-11T03:29:19.760Z,24.42
2024-01-11T03:31:46.648Z,23.05
2024-01-11T03:34:13.757Z,26.73
2024-01-11T03:36:41.383Z,27.33
2024-01-11T03:39:08.150Z,26.58
2024-01-11T03:41:35.129Z,25.63
2024-01-11T03:44:02.038Z,24.02
2024-01-11T03:46:29.051Z,24.10
2024-01-11T03:48:57.194Z,25.30
2024-01-11T03:51:24.025Z,22.92
2024-01-11T03:53:50.986Z,23.20
2024-01-11T03:56:17.841Z,22.42
2024-01-11T03:58:46.374Z,25.27
2024-01-11T04:01:13.278Z,22.88
2024-01-11T04:03:40.314Z,23.00
2024-01-11T04:06:07.728Z,21.00
2024-01-11T04:08:34.972Z,23.23
2024-01-11T04:11:08.138Z,22.98
2024-01-11T04:13:34.895Z,21.80
2024-01-11T04:16:06.263Z,22.45
2024-01-11T04:18:33.290Z,23.70
2024-01-11T04:21:00.190Z,23.15
2024-01-11T04:23:27.027Z,21.02
2024-01-11T04:25:53.757Z,22.75
2024-01-11T04:28:20.508Z,21.67
2024-01-11T04:30:47.378Z,21.30
2024-01-11T04:33:14.294Z,20.63
2024-01-11T04:35:41.235Z,22.92
2024-01-11T04:38:07.996Z,18.60
2024-01-11T04:40:34.726Z,19.08
2024-01-11T04:43:01.434Z,20.90
2024-01-11T04:45:28.089Z,20.83
2024-01-11T04:47:55.069Z,18.48
2024-01-11T04:50:23.118Z,19.73
2024-01-11T04:52:50.113Z,18.42
2024-01-11T04:55:16.805Z,17.20
2024-01-11T04:57:43.536Z,18.55
2024-01-11T05:00:10.601Z,19.08
2024-01-11T05:02:37.444Z,20.05
2024-01-11T05:05:05.018Z,20.65
2024-01-11T05:07:31.853Z,19.02
2024-01-11T05:09:58.611Z,20.63
2024-01-11T05:12:25.469Z,18.58
2024-01-11T05:14:52.225Z,17.27
2024-01-11T05:17:18.992Z,18.25
2024-01-11T05:19:45.815Z,18.63
2024-01-11T05:22:12.603Z,18.10
2024-01-11T05:24:39.320Z,15.65
2024-01-11T05:27:06.164Z,17.40
2024-01-11T05:29:33.313Z,18.52
2024-01-11T05:32:00.174Z,16.40
2024-01-11T05:34:27.075Z,19.02
2024-01-11T05:36:53.814Z,18.23
2024-01-11T05:39:20.492Z,19.58
2024-01-11T05:41:47.274Z,14.98
2024-01-11T05:44:14.462Z,17.17
2024-01-11T05:46:41.132Z,19.13
2024-01-11T05:49:08.759Z,17.15
2024-01-11T05:51:35.535Z,15.95
2024-01-11T05:54:02.196Z,18.95
2024-01-11T05:56:29.001Z,18.13
2024-01-11T05:58:55.856Z,14.50
2024-01-11T06:01:22.828Z,17.88
2024-01-11T06:03:49.734Z,15.57
2024-01-11T06:06:16.580Z,16.25
2024-01-11T06:08:44.871Z,17.75
2024-01-11T06:11:11.780Z,18.90
2024-01-11T06:13:38.478Z,15.50
2024-01-11T06:16:05.238Z,16.23
2024-01-11T06:18:32.242Z,18.13
2024-01-11T06:20:59.015Z,17.08
2024-01-11T06:23:26.917Z,21.02
2024-01-11T06:25:53.872Z,19.58
2024-01-11T06:28:20.597Z,17.08
2024-01-11T06:30:47.341Z,15.48
2024-01-11T06:33:14.312Z,17.70
2024-01-11T06:35:41.368Z,17.85
2024-01-11T06:38:09.096Z,17.05
2024-01-11T06:40:35.947Z,17.60
2024-01-11T06:43:02.641Z,16.63
2024-01-11T06:45:29.373Z,16.88
2024-01-11T06:47:56.306Z,19.33
2024-01-11T06:50:23.279Z,17.73
2024-01-11T06:52:49.963Z,17.50
2024-01-11T06:55:16.971Z,17.85
2024-01-11T06:57:43.654Z,16.30
2024-01-11T07:00:11.378Z,19.80
2024-01-11T07:02:38.202Z,19.42
2024-01-11T07:05:05.264Z,17.77
2024-01-11T07:07:31.987Z,18.33
2024-01-11T07:09:58.774Z,17.17
2024-01-11T07:12:26.688Z,18.23
2024-01-11T07:14:53.430Z,18.90
2024-01-11T07:17:20.253Z,17.33
2024-01-11T07:19:47.017Z,15.40
2024-01-11T07:22:13.826Z,16.25
2024-01-11T07:24:40.609Z,18.13
2024-01-11T07:27:08.212Z,16.92
2024-01-11T07:29:35.065Z,17.08
2024-01-11T07:32:02.078Z,16.27
2024-01-11T07:34:29.535Z,16.85
2024-01-11T07:36:57.711Z,18.45
2024-01-11T07:39:25.667Z,18.40
2024-01-11T07:41:52.538Z,19.52
2024-01-11T07:44:19.731Z,18.10
2024-01-11T07:46:52.600Z,17.30
2024-01-11T07:49:21.774Z,16.15
2024-01-11T07:51:48.797Z,18.13
2024-01-11T07:54:15.553Z,16.13
2024-01-11T07:56:42.414Z,17.05
2024-01-11T07:59:09.236Z,16.27
2024-01-11T08:01:36.773Z,16.25
2024-01-11T08:04:04.279Z,18.20
2024-01-11T08:06:31.786Z,16.27
2024-01-11T08:08:58.612Z,18.63
2024-01-11T08:11:26.132Z,17.85
2024-01-11T08:13:56.014Z,17.88
2024-01-11T08:16:22.845Z,16.45
2024-01-11T08:18:50.362Z,15.68
2024-01-11T08:21:17.213Z,20.40
2024-01-11T08:23:46.632Z,18.38
2024-01-11T08:26:15.457Z,16.40
2024-01-11T08:28:43.186Z,19.88
2024-01-11T08:31:10.120Z,16.00
2024-01-11T08:33:40.047Z,15.20
2024-01-11T08:36:08.275Z,14.45
2024-01-11T08:38:36.874Z,17.45
2024-01-11T08:41:04.731Z,15.25
2024-01-11T08:43:31.689Z,14.27
2024-01-11T08:45:58.380Z,16.10
2024-01-11T08:48:25.374Z,14.80
2024-01-11T08:50:52.345Z,15.90
2024-01-11T08:53:19.142Z,21.38
2024-01-11T08:55:47.374Z,20.33
2024-01-11T08:58:14.740Z,13.82
2024-01-11T09:00:41.673Z,16.55
2024-01-11T09:03:08.769Z,16.77
2024-01-11T09:05:35.723Z,18.55
2024-01-11T09:08:02.589Z,18.08
2024-01-11T09:10:29.309Z,15.23
2024-01-11T09:12:56.234Z,14.05
2024-01-11T09:15:23.080Z,13.73
2024-01-11T09:17:50.814Z,15.70
2024-01-11T09:20:18.139Z,16.58
2024-01-11T09:22:45.005Z,18.95
2024-01-11T09:25:11.683Z,18.65
2024-01-11T09:27:38.400Z,15.02
2024-01-11T09:30:05.857Z,14.77
2024-01-11T09:32:32.884Z,14.80
2024-01-11T09:35:00.006Z,14.40
2024-01-11T09:37:27.130Z,12.88
2024-01-11T09:39:54.130Z,17.17
2024-01-11T09:42:20.823Z,21.45
2024-01-11T09:44:48.007Z,14.70
2024-01-11T09:47:18.992Z,16.13
2024-01-11T09:49:46.965Z,13.77
2024-01-11T09:52:16.014Z,15.25
2024-01-11T09:54:43.093Z,15.52
2024-01-11T09:57:10.884Z,15.07
2024-01-11T09:59:38.154Z,16.70
2024-01-11T10:02:09.508Z,16.13
2024-01-11T10:04:36.856Z,15.10
2024-01-11T10:07:07.381Z,16.95
2024-01-11T10:09:34.452Z,12.68
2024-01-11T10:12:01.192Z,14.50
2024-01-11T10:14:28.041Z,15.45
2024-01-11T10:16:56.172Z,14.20
2024-01-11T10:19:23.325Z,12.43
2024-01-11T10:21:50.187Z,14.90
2024-01-11T10:24:21.917Z,17.42
2024-01-11T10:26:49.031Z,14.63
2024-01-11T10:29:15.895Z,16.55
2024-01-11T10:31:42.628Z,15.82
2024-01-11T10:34:09.912Z,14.30
2024-01-11T10:36:37.578Z,14.02
2024-01-11T10:39:08.709Z,13.40
2024-01-11T10:41:44.074Z,12.95
2024-01-11T10:44:22.758Z,12.00
2024-01-11T10:46:57.212Z,12.57
2024-01-11T10:49:26.607Z,11.82
2024-01-11T10:52:01.734Z,14.85
2024-01-11T10:54:30.066Z,13.27
2024-01-11T10:57:00.340Z,13.13
2024-01-11T10:59:28.184Z,11.95
2024-01-11T11:01:57.460Z,12.75
2024-01-11T11:04:24.845Z,11.10
2024-01-11T11:06:58.404Z,14.30
2024-01-11T11:09:26.897Z,13.23
2024-01-11T11:11:59.777Z,13.07
2024-01-11T11:14:26.800Z,12.40
2024-01-11T11:16:54.265Z,13.55
2024-01-11T11:19:21.950Z,13.50
2024-01-11T11:21:49.728Z,13.18
2024-01-11T11:24:20.369Z,13.23
2024-01-11T11:26:47.810Z,13.25
2024-01-11T11:29:16.739Z,13.77
2024-01-11T11:31:44.881Z,14.02
2024-01-11T11:34:15.463Z,13.52
2024-01-11T11:36:43.707Z,14.02
2024-01-11T11:39:14.828Z,13.60
2024-01-11T11:41:43.873Z,13.40
2024-01-11T11:44:16.769Z,13.63
2024-01-11T11:46:45.110Z,12.27
2024-01-11T11:49:12.377Z,13.20
2024-01-11T11:51:42.311Z,14.93
2024-01-11T11:54:15.944Z,13.10
2024-01-11T11:56:43.519Z,11.77
2024-01-11T11:59:10.898Z,14.57
2024-01-11T12:01:39.828Z,15.95
2024-01-11T12:04:09.093Z,14.20
2024-01-11T12:06:36.044Z,13.07
2024-01-11T12:09:02.821Z,15.55
2024-01-11T12:11:30.515Z,14.70
2024-01-11T12:13:59.295Z,17.48
2024-01-11T12:16:26.218Z,18.20
2024-01-11T12:18:53.135Z,16.85
2024-01-11T12:21:21.232Z,13.65
2024-01-11T12:23:50.131Z,14.10
2024-01-11T12:26:23.991Z,14.43
2024-01-11T12:28:51.714Z,13.65
2024-01-11T12:31:20.391Z,15.38
2024-01-11T12:33:47.459Z,14.15
2024-01-11T12:36:14.232Z,14.82
2024-01-11T12:38:49.926Z,14.50
2024-01-11T12:41:19.266Z,17.45
2024-01-11T12:43:46.108Z,16.48
2024-01-11T12:46:12.891Z,17.08
2024-01-11T12:48:40.102Z,13.93
2024-01-11T12:51:14.410Z,14.75
2024-01-11T12:53:48.053Z,14.93
2024-01-11T12:56:16.625Z,12.90
2024-01-11T12:58:44.081Z,15.00
2024-01-11T13:01:11.960Z,12.98
2024-01-11T13:03:40.326Z,15.85
2024-01-11T13:06:07.712Z,12.45
2024-01-11T13:08:37.765Z,15.10
2024-01-11T13:11:08.325Z,15.00
2024-01-11T13:13:38.646Z,12.95
2024-01-11T13:16:12.558Z,15.20
2024-01-11T13:18:39.721Z,13.63
2024-01-11T13:21:08.050Z,13.27
2024-01-11T13:23:35.136Z,12.02
2024-01-11T13:26:03.536Z,13.10
2024-01-11T13:28:30.529Z,11.43
2024-01-11T13:30:58.176Z,12.30
2024-01-11T13:33:25.343Z,12.80
2024-01-11T13:35:52.441Z,13.68
2024-01-11T13:38:21.644Z,13.10
2024-01-11T13:40:50.804Z,13.57
2024-01-11T13:43:18.481Z,15.50
2024-01-11T13:45:46.083Z,15.05
2024-01-11T13:48:12.957Z,13.23
2024-01-11T13:50:39.873Z,14.50
2024-01-11T13:53:07.634Z,15.32
2024-01-11T13:55:41.356Z,14.25
2024-01-11T13:58:09.190Z,14.00
2024-01-11T14:00:36.327Z,13.93
2024-01-11T14:03:04.885Z,13.00
2024-01-11T14:05:31.975Z,14.10
2024-01-11T14:08:00.764Z,15.85
2024-01-11T14:10:28.500Z,13.05
2024-01-11T14:12:55.703Z,13.60
2024-01-11T14:15:22.592Z,14.77
2024-01-11T14:17:51.464Z,13.60
2024-01-11T14:20:18.905Z,13.10
2024-01-11T14:22:50.340Z,15.75
2024-01-11T14:25:19.000Z,15.02
2024-01-11T14:27:46.004Z,15.48
2024-01-11T14:30:14.826Z,14.05
2024-01-11T14:32:44.962Z,17.52
2024-01-11T14:35:12.511Z,15.15
2024-01-11T14:37:41.161Z,15.73
2024-01-11T14:40:12.090Z,15.52
2024-01-11T14:42:39.045Z,16.48
2024-01-11T14:45:06.752Z,17.73
2024-01-11T14:47:33.951Z,17.10
2024-01-11T14:50:01.028Z,21.13
2024-01-11T14:52:27.757Z,16.45
2024-01-11T14:54:54.519Z,14.52
2024-01-11T14:57:22.359Z,15.38
2024-01-11T14:59:49.433Z,15.98
2024-01-11T15:02:16.993Z,13.70
2024-01-11T15:04:43.803Z,14.05
2024-01-11T15:07:10.692Z,16.08
2024-01-11T15:09:40.001Z,14.73
2024-01-11T15:12:08.335Z,13.73
2024-01-11T15:14:35.268Z,16.73
2024-01-11T15:17:03.667Z,14.50
2024-01-11T15:19:31.238Z,14.07
2024-01-11T15:21:57.988Z,14.40
2024-01-11T15:24:24.696Z,14.57
2024-01-11T15:26:51.630Z,14.90
2024-01-11T15:29:18.763Z,15.25
2024-01-11T15:31:50.632Z,14.50
2024-01-11T15:34:17.654Z,14.85
2024-01-11T15:36:44.809Z,14.60
2024-01-11T15:39:21.165Z,17.92
2024-01-11T15:41:58.532Z,15.60
2024-01-11T15:44:27.963Z,18.63
2024-01-11T15:46:56.244Z,18.27
2024-01-11T15:49:23.816Z,16.05
2024-01-11T15:51:50.594Z,15.43
2024-01-11T15:54:17.322Z,16.05
2024-01-11T15:56:44.153Z,15.15
2024-01-11T15:59:10.971Z,13.65
2024-01-11T16:01:50.330Z,16.15
2024-01-11T16:04:24.098Z,16.85
2024-01-11T16:06:51.196Z,15.85
2024-01-11T16:09:18.125Z,14.18
2024-01-11T16:11:46.251Z,14.70
2024-01-11T16:14:13.048Z,19.23
2024-01-11T16:16:39.789Z,15.27
2024-01-11T16:19:06.716Z,16.48
2024-01-11T16:21:33.693Z,19.10
2024-01-11T16:24:03.113Z,20.92
2024-01-11T16:26:30.675Z,18.63
2024-01-11T16:28:58.143Z,16.27
2024-01-11T16:31:25.138Z,16.33
2024-01-11T16:33:51.893Z,16.33
2024-01-11T16:36:19.141Z,20.85
2024-01-11T16:38:46.414Z,19.10
2024-01-11T16:41:13.541Z,18.48
2024-01-11T16:43:40.994Z,23.00
2024-01-11T16:46:08.819Z,17.35
2024-01-11T16:48:35.839Z,18.83
2024-01-11T16:51:02.957Z,16.77
2024-01-11T16:53:29.760Z,17.60
2024-01-11T16:55:56.679Z,18.70
2024-01-11T16:58:23.445Z,17.83
2024-01-11T17:00:50.250Z,20.77
2024-01-11T17:03:17.489Z,18.80
2024-01-11T17:05:44.510Z,20.48
2024-01-11T17:08:11.312Z,20.52
2024-01-11T17:10:39.314Z,20.80
2024-01-11T17:13:06.068Z,19.95
2024-01-11T17:15:33.224Z,23.80
2024-01-11T17:18:00.282Z,18.08
2024-01-11T17:20:27.205Z,18.10
2024-01-11T17:22:55.161Z,20.40
2024-01-11T17:25:22.563Z,47.00
2024-01-11T17:27:49.500Z,62.22
2024-01-11T17:30:16.547Z,43.03
2024-01-11T17:32:43.580Z,32.15
2024-01-11T17:35:10.563Z,25.08
2024-01-11T17:37:37.585Z,27.05
2024-01-11T17:40:08.229Z,22.77
2024-01-11T17:42:35.146Z,19.65
2024-01-11T17:45:02.348Z,18.67
2024-01-11T17:47:29.567Z,18.17
2024-01-11T17:49:56.412Z,15.35
2024-01-11T17:52:23.122Z,16.27
2024-01-11T17:54:49.903Z,18.83
2024-01-11T17:57:16.570Z,18.50
2024-01-11T17:59:46.400Z,19.30
2024-01-11T18:02:13.297Z,19.65
2024-01-11T18:04:42.260Z,20.08
2024-01-11T18:07:09.138Z,23.30
2024-01-11T18:09:36.581Z,23.05
2024-01-11T18:12:03.503Z,21.17
2024-01-11T18:14:30.228Z,19.73
2024-01-11T18:16:57.002Z,21.95
2024-01-11T18:19:23.977Z,22.30
2024-01-11T18:21:50.744Z,19.20
2024-01-11T18:24:18.663Z,20.88
2024-01-11T18:26:45.538Z,20.23
2024-01-11T18:29:12.440Z,19.15
2024-01-11T18:31:39.962Z,21.10
2024-01-11T18:34:07.278Z,19.42
2024-01-11T18:36:44.943Z,18.40
2024-01-11T18:39:11.747Z,21.35
2024-01-11T18:41:38.926Z,20.55
2024-01-11T18:44:05.773Z,22.27
2024-01-11T18:46:32.581Z,19.35
2024-01-11T18:48:59.436Z,20.52
2024-01-11T18:51:27.461Z,20.45
2024-01-11T18:53:55.096Z,19.80
2024-01-11T18:56:21.864Z,20.90
2024-01-11T18:58:48.558Z,19.77
2024-01-11T19:01:15.260Z,20.35
2024-01-11T19:03:42.093Z,19.05
2024-01-11T19:06:09.245Z,20.98
2024-01-11T19:08:37.201Z,18.08
2024-01-11T19:11:04.268Z,18.83
2024-01-11T19:13:31.039Z,21.52
2024-01-11T19:15:57.758Z,19.25
2024-01-11T19:18:24.759Z,19.20
2024-01-11T19:20:54.800Z,21.60
2024-01-11T19:23:26.750Z,19.08
2024-01-11T19:25:57.561Z,24.48
2024-01-11T19:28:25.194Z,20.90
2024-01-11T19:30:52.505Z,22.38
2024-01-11T19:33:19.563Z,20.52
2024-01-11T19:35:46.641Z,23.02
2024-01-11T19:38:13.845Z,21.77
2024-01-11T19:40:43.539Z,22.20
2024-01-11T19:43:10.533Z,20.80
2024-01-11T19:45:37.542Z,24.23
2024-01-11T19:48:05.207Z,27.08
2024-01-11T19:50:34.414Z,24.38
2024-01-11T19:53:01.913Z,25.50
2024-01-11T19:55:28.643Z,25.55
2024-01-11T19:57:55.409Z,27.52
2024-01-11T20:00:22.971Z,26.83
2024-01-11T20:02:50.779Z,27.38
2024-01-11T20:05:17.591Z,27.10
2024-01-11T20:07:44.795Z,24.48
2024-01-11T20:10:12.511Z,27.20
2024-01-11T20:12:39.449Z,25.23
2024-01-11T20:15:08.524Z,25.35
2024-01-11T20:17:35.438Z,26.52
2024-01-11T20:20:02.380Z,22.23
2024-01-11T20:22:29.336Z,26.58
2024-01-11T20:24:56.302Z,25.17
2024-01-11T20:27:23.621Z,38.95
2024-01-11T20:29:50.544Z,28.15
2024-01-11T20:32:17.663Z,23.63
2024-01-11T20:34:44.798Z,33.13
2024-01-11T20:37:11.805Z,28.42
2024-01-11T20:39:39.308Z,25.85
2024-01-11T20:42:06.427Z,28.88
2024-01-11T20:44:36.694Z,26.48
2024-01-11T20:47:04.563Z,25.33
2024-01-11T20:49:31.407Z,27.33
2024-01-11T20:52:00.442Z,27.88
2024-01-11T20:54:27.760Z,27.48
2024-01-11T20:56:56.153Z,28.38
2024-01-11T20:59:23.176Z,26.42
2024-01-11T21:01:50.149Z,24.98
2024-01-11T21:04:16.889Z,26.67
2024-01-11T21:06:45.318Z,27.75
2024-01-11T21:09:13.678Z,28.15
2024-01-11T21:11:41.749Z,30.80
2024-01-11T21:14:08.958Z,27.35
2024-01-11T21:16:35.783Z,29.40
2024-01-11T21:19:06.444Z,28.40
2024-01-11T21:21:34.202Z,27.55
2024-01-11T21:24:02.593Z,26.77
2024-01-11T21:26:29.629Z,29.13
2024-01-11T21:28:57.143Z,30.13
2024-01-11T21:31:28.771Z,30.60
2024-01-11T21:33:55.969Z,27.77
2024-01-11T21:36:25.901Z,27.33
2024-01-11T21:38:56.002Z,32.30
2024-01-11T21:41:23.989Z,27.73
2024-01-11T21:43:52.266Z,26.35
2024-01-11T21:46:27.009Z,26.25
2024-01-11T21:48:54.393Z,28.65
2024-01-11T21:51:21.220Z,27.40
2024-01-11T21:53:47.957Z,31.42
2024-01-11T21:56:14.821Z,30.90
2024-01-11T21:58:42.014Z,34.30
2024-01-11T22:01:08.835Z,33.03
2024-01-11T22:03:37.041Z,32.33
2024-01-11T22:06:04.880Z,29.00
2024-01-11T22:08:32.047Z,29.25
2024-01-11T22:10:58.918Z,34.35
2024-01-11T22:13:25.631Z,30.10
2024-01-11T22:15:52.621Z,33.10
2024-01-11T22:18:19.496Z,36.35
2024-01-11T22:20:46.527Z,31.08
2024-01-11T22:23:13.322Z,32.05
2024-01-11T22:25:40.173Z,31.55
2024-01-11T22:28:06.920Z,31.48
2024-01-11T22:30:34.409Z,30.45
2024-01-11T22:33:02.889Z,31.25
2024-01-11T22:35:29.779Z,30.40
2024-01-11T22:37:56.567Z,31.02
2024-01-11T22:40:23.412Z,31.08
2024-01-11T22:42:50.090Z,33.38
2024-01-11T22:45:16.846Z,35.25
2024-01-11T22:47:43.594Z,34.55
2024-01-11T22:50:10.745Z,35.08
2024-01-11T22:52:37.960Z,39.60
2024-01-11T22:55:05.718Z,37.90
2024-01-11T22:57:33.093Z,35.13
2024-01-11T22:59:59.825Z,34.72
2024-01-11T23:02:27.233Z,30.38
2024-01-11T23:04:54.088Z,29.77
2024-01-11T23:07:20.778Z,34.10
2024-01-11T23:09:47.628Z,32.28
2024-01-11T23:12:14.356Z,33.05
2024-01-11T23:14:41.229Z,35.65
2024-01-11T23:17:07.891Z,30.70
2024-01-11T23:19:34.823Z,30.75
2024-01-11T23:22:01.636Z,30.25
2024-01-11T23:24:28.342Z,30.80
2024-01-11T23:26:55.327Z,33.58
2024-01-11T23:29:22.221Z,31.02
2024-01-11T23:31:49.416Z,30.10
2024-01-11T23:34:16.428Z,31.40
2024-01-11T23:36:43.385Z,32.28
2024-01-11T23:39:10.054Z,32.83
2024-01-11T23:41:36.809Z,29.92
2024-01-11T23:44:03.662Z,29.08
2024-01-11T23:46:30.494Z,31.30
2024-01-11T23:48:57.410Z,28.17
2024-01-11T23:51:24.424Z,31.88
2024-01-11T23:53:51.351Z,27.45
2024-01-11T23:56:18.179Z,34.17
2024-01-11T23:58:44.944Z,29.50
